TimeEST,TemperatureF,Dew PointF,Humidity,Sea Level PressureIn,VisibilityMPH,Wind Direction,Wind SpeedMPH,Gust SpeedMPH,PrecipitationIn,Events,Conditions,WindDirDegrees,DateUTC
12:15 AM,53.1,51.1,93,29.86,5.0,South,17.3,29.9,N/A,Rain,Light Rain,190,2012-12-02 05:15:00
12:34 AM,52.9,50.9,93,29.86,7.0,SSW,17.3,25.3,N/A,,Overcast,200,2012-12-02 05:34:00
12:55 AM,52.9,50.4,91,29.85,10.0,South,16.1,23.0,N/A,,Overcast,190,2012-12-02 05:55:00
1:14 AM,53.2,50.4,90,29.85,10.0,SSW,18.4,25.3,N/A,,Overcast,200,2012-12-02 06:14:00
1:34 AM,53.6,50.2,88,29.85,10.0,SSW,16.1,23.0,N/A,,Overcast,200,2012-12-02 06:34:00
1:54 AM,54.0,50.0,86,29.85,10.0,SSW,15.0,20.7,N/A,,Overcast,200,2012-12-02 06:54:00
2:14 AM,54.1,49.6,85,29.85,10.0,SSW,17.3,25.3,N/A,,Overcast,200,2012-12-02 07:14:00
2:34 AM,54.3,49.5,84,29.85,10.0,SSW,11.5,18.4,N/A,,Overcast,200,2012-12-02 07:34:00
2:55 AM,54.1,49.3,84,29.85,10.0,SSW,11.5,21.9,N/A,,Overcast,200,2012-12-02 07:55:00
3:14 AM,54.0,49.1,84,29.85,10.0,SSW,12.7,19.6,N/A,,Overcast,210,2012-12-02 08:14:00
3:34 AM,53.8,49.1,84,29.85,10.0,SSW,11.5,18.4,N/A,Rain,Light Rain,200,2012-12-02 08:34:00
3:55 AM,53.6,49.1,85,29.85,10.0,SSW,10.4,17.3,N/A,,Light Drizzle,200,2012-12-02 08:55:00
4:14 AM,53.6,49.1,85,29.85,10.0,SSW,10.4,-,N/A,,Overcast,210,2012-12-02 09:14:00
4:34 AM,53.1,49.1,86,29.84,10.0,SSW,16.1,19.6,N/A,,Overcast,210,2012-12-02 09:34:00
4:54 AM,52.7,49.1,88,29.84,10.0,SSW,10.4,-,N/A,,Overcast,210,2012-12-02 09:54:00
5:14 AM,52.3,49.3,89,29.84,10.0,SSW,8.1,-,N/A,,Overcast,200,2012-12-02 10:14:00
5:35 AM,52.2,49.8,92,29.84,10.0,SSW,8.1,-,N/A,,Overcast,200,2012-12-02 10:35:00
5:54 AM,52.0,50.2,94,29.84,7.0,South,6.9,-,N/A,,Overcast,190,2012-12-02 10:54:00
6:14 AM,52.0,50.2,94,29.84,7.0,SSW,6.9,-,N/A,,Overcast,200,2012-12-02 11:14:00
6:35 AM,52.0,50.2,94,29.85,7.0,SSW,8.1,-,N/A,,Overcast,200,2012-12-02 11:35:00
6:55 AM,51.8,50.0,94,29.85,7.0,South,8.1,-,N/A,,Overcast,190,2012-12-02 11:55:00
7:14 AM,51.6,49.6,93,29.85,7.0,SSW,9.2,-,N/A,,Overcast,210,2012-12-02 12:14:00
7:34 AM,51.3,49.5,94,29.85,7.0,SSW,6.9,-,N/A,,Overcast,210,2012-12-02 12:34:00
7:54 AM,51.1,49.5,94,29.86,7.0,SSW,5.8,-,N/A,,Overcast,210,2012-12-02 12:54:00
8:14 AM,50.9,49.5,95,29.86,7.0,SSW,8.1,-,N/A,,Overcast,200,2012-12-02 13:14:00
8:34 AM,50.9,49.5,95,29.88,5.0,SW,4.6,-,N/A,,Overcast,220,2012-12-02 13:34:00
8:54 AM,51.3,50.4,97,29.88,3.0,WSW,6.9,-,N/A,,Overcast,250,2012-12-02 13:54:00
9:15 AM,51.1,50.2,97,29.90,2.0,West,6.9,-,N/A,,Overcast,270,2012-12-02 14:15:00
9:34 AM,50.5,49.8,97,29.91,2.5,WNW,5.8,-,N/A,,Overcast,300,2012-12-02 14:34:00
9:54 AM,51.1,49.6,95,29.91,4.0,West,3.5,-,N/A,,Overcast,260,2012-12-02 14:54:00
10:15 AM,51.8,49.3,91,29.92,4.0,West,3.5,-,N/A,,Overcast,260,2012-12-02 15:15:00
10:34 AM,52.2,49.5,91,29.92,5.0,West,5.8,-,N/A,,Overcast,270,2012-12-02 15:34:00
10:54 AM,52.2,48.9,89,29.93,5.0,West,9.2,-,N/A,,Overcast,280,2012-12-02 15:54:00
11:14 AM,51.8,48.4,88,29.94,5.0,West,10.4,-,N/A,,Overcast,270,2012-12-02 16:14:00
11:34 AM,52.5,48.2,85,29.94,5.0,West,5.8,-,N/A,,Haze,280,2012-12-02 16:34:00
11:55 AM,51.8,47.5,85,29.94,5.0,WNW,9.2,-,N/A,,Haze,290,2012-12-02 16:55:00
12:14 PM,52.0,46.6,82,29.94,5.0,WNW,8.1,-,N/A,,Haze,290,2012-12-02 17:14:00
12:34 PM,51.4,45.5,80,29.94,7.0,WNW,10.4,-,N/A,,Overcast,290,2012-12-02 17:34:00
12:55 PM,51.1,44.8,79,29.94,7.0,NW,9.2,-,N/A,,Overcast,310,2012-12-02 17:55:00
1:14 PM,50.9,44.6,79,29.94,7.0,WNW,8.1,-,N/A,,Overcast,290,2012-12-02 18:14:00
1:34 PM,51.1,44.1,77,29.95,7.0,NW,8.1,-,N/A,,Overcast,310,2012-12-02 18:34:00
1:54 PM,50.9,43.2,75,29.95,7.0,WNW,11.5,-,N/A,,Overcast,300,2012-12-02 18:54:00
2:14 PM,50.5,42.8,75,29.95,7.0,WNW,9.2,-,N/A,,Overcast,300,2012-12-02 19:14:00
2:34 PM,50.0,42.3,75,29.95,7.0,West,9.2,-,N/A,,Overcast,280,2012-12-02 19:34:00
2:54 PM,49.8,41.9,74,29.96,7.0,WNW,9.2,-,N/A,,Mostly Cloudy,290,2012-12-02 19:54:00
3:15 PM,50.0,42.1,74,29.97,7.0,WNW,9.2,-,N/A,,Mostly Cloudy,300,2012-12-02 20:15:00
3:34 PM,49.1,42.3,77,29.98,7.0,WNW,10.4,-,N/A,,Overcast,300,2012-12-02 20:34:00
3:55 PM,47.7,41.4,79,29.98,7.0,WNW,6.9,-,N/A,,Mostly Cloudy,290,2012-12-02 20:55:00
4:14 PM,47.3,41.4,80,29.98,7.0,West,4.6,-,N/A,,Mostly Cloudy,280,2012-12-02 21:14:00
4:34 PM,47.7,41.4,79,29.99,7.0,NNW,9.2,-,N/A,,Overcast,330,2012-12-02 21:34:00
4:55 PM,46.9,41.5,81,30.00,7.0,NW,4.6,-,N/A,,Overcast,320,2012-12-02 21:55:00
5:14 PM,46.8,41.0,80,30.01,7.0,NW,3.5,-,N/A,,Overcast,310,2012-12-02 22:14:00
5:34 PM,46.4,40.5,80,30.01,7.0,WNW,3.5,-,N/A,,Overcast,300,2012-12-02 22:34:00
5:55 PM,45.5,41.0,84,30.02,7.0,NW,4.6,-,N/A,,Overcast,310,2012-12-02 22:55:00
6:14 PM,45.5,40.6,83,30.04,7.0,NW,4.6,-,N/A,,Overcast,320,2012-12-02 23:14:00
6:34 PM,45.9,40.3,81,30.04,10.0,NNW,4.6,-,N/A,,Overcast,340,2012-12-02 23:34:00
6:54 PM,45.7,40.1,81,30.05,10.0,NNW,4.6,-,N/A,,Overcast,340,2012-12-02 23:54:00
7:14 PM,45.1,39.2,80,30.06,10.0,Calm,Calm,-,N/A,,Overcast,0,2012-12-03 00:14:00
7:34 PM,45.0,39.6,81,30.07,10.0,Calm,Calm,-,N/A,,Overcast,0,2012-12-03 00:34:00
7:55 PM,44.1,39.2,83,30.07,10.0,North,3.5,-,N/A,,Scattered Clouds,360,2012-12-03 00:55:00
8:14 PM,42.8,38.5,85,30.07,10.0,North,3.5,-,N/A,,Clear,10,2012-12-03 01:14:00
8:54 PM,41.4,39.2,92,30.08,7.0,Calm,Calm,-,N/A,,Clear,0,2012-12-03 01:54:00
9:15 PM,40.6,39.2,95,30.07,7.0,East,3.5,-,N/A,,Clear,90,2012-12-03 02:15:00
9:34 PM,38.8,37.6,95,30.08,4.0,Calm,Calm,-,N/A,,Clear,0,2012-12-03 02:34:00
9:55 PM,37.4,36.9,98,30.08,3.0,Calm,Calm,-,N/A,,Clear,0,2012-12-03 02:55:00
10:14 PM,37.8,37.2,98,30.08,2.5,NE,3.5,-,N/A,,Clear,50,2012-12-03 03:14:00
10:34 PM,38.3,37.9,99,30.08,2.5,East,3.5,-,N/A,,Clear,100,2012-12-03 03:34:00
10:54 PM,36.7,36.3,99,30.08,1.8,Calm,Calm,-,N/A,,Mist,0,2012-12-03 03:54:00
11:14 PM,35.4,35.2,99,30.07,1.8,Calm,Calm,-,N/A,,Mist,0,2012-12-03 04:14:00
11:35 PM,37.0,36.9,99,30.08,2.5,Calm,Calm,-,N/A,,Clear,0,2012-12-03 04:35:00
11:54 PM,36.5,36.3,99,30.09,1.2,Calm,Calm,-,N/A,,Mist,0,2012-12-03 04:54:00